Observations for BOSCOMBE DOWN, United Kingdom (EGDM)

EGDM 200550Z AUTO 33007KT 8000 HZ NCD 08/06 Q1031   
EGDM 200450Z AUTO 33006KT 8000 HZ NCD 07/04 Q1030   
EGDM 200350Z AUTO 02003KT 9999 NCD 10/06 Q1030  
EGDM 200250Z AUTO 33006KT 9999 NCD 10/06 Q1030  
EGDM 200150Z AUTO 04007KT 9999 NCD 12/06 Q1030  
EGDM 200050Z AUTO 35006KT 9999 NCD 12/05 Q1030  
EGDM 192350Z AUTO 34005KT 9999 NCD 11/06 Q1030  
EGDM 192250Z AUTO 05007KT 9999 NCD 16/04 Q1030  
EGDM 192150Z AUTO 05005KT 9999 NCD 15/06 Q1030  
EGDM 192050Z AUTO 06006KT 9999 NCD 18/06 Q1030  
EGDM 191950Z AUTO 02007KT 9999 NCD 17/08 Q1029  
EGDM 191850Z AUTO 01007KT 9999 NCD 19/07 Q1029  
EGDM 191750Z AUTO 05006KT 9999 NCD 21/05 Q1028  
EGDM 191650Z AUTO 04009KT 9999 NCD 22/06 Q1028  
EGDM 191550Z AUTO 08008KT 9999 NCD 22/06 Q1028  
EGDM 191450Z AUTO 06010KT 9999 NCD 22/08 Q1028  
EGDM 191350Z AUTO 07007KT 9999 NCD 22/08 Q1028  
EGDM 191250Z AUTO 07011KT 9999 NCD 22/06 Q1028  
EGDM 191150Z AUTO 09006KT 9999 NCD 21/08 Q1028  
EGDM 191050Z AUTO 05010KT 9999 FEW240/// 20/08 Q1028
EGDM 190950Z AUTO 04008KT 9999 NCD 18/07 Q1028  
EGDM 190850Z AUTO 04007KT 9999 NCD 16/08 Q1028  
EGDM 190750Z AUTO 03004KT 9999 NCD 13/07 Q1027  
EGDM 190650Z AUTO 35004KT 9999 NCD 10/06 Q1027  
EGDM 190550Z AUTO 01004KT 9999 NCD 09/05 Q1026